sensor_id;sensor_type;location;lat;lon;timestamp;pressure;altitude;pressure_sealevel;temperature;humidity
5872;BME280;2962;51.312;7.378;2023-03-31T00:00:19;96463.56;;;7.95;100.00
5872;BME280;2962;51.312;7.378;2023-03-31T00:02:44;96460.50;;;7.97;100.00
5872;BME280;2962;51.312;7.378;2023-03-31T00:05:10;96452.69;;;7.88;100.00
5872;BME280;2962;51.312;7.378;2023-03-31T00:07:35;96446.47;;;7.88;100.00
5872;BME280;2962;51.312;7.378;2023-03-31T00:10:04;96442.56;;;7.81;100.00
5872;BME280;2962;51.312;7.378;2023-03-31T00:12:30;96442.94;;;7.83;100.00
5872;BME280;2962;51.312;7.378;2023-03-31T00:14:55;96429.34;;;7.76;100.00
5872;BME280;2962;51.312;7.378;2023-03-31T00:17:20;96431.22;;;7.72;100.00
5872;BME280;2962;51.312;7.378;2023-03-31T00:19:46;96417.31;;;7.74;100.00
5872;BME280;2962;51.312;7.378;2023-03-31T00:22:14;96409.84;;;7.64;100.00
5872;BME280;2962;51.312;7.378;2023-03-31T00:24:43;96399.06;;;7.71;100.00
5872;BME280;2962;51.312;7.378;2023-03-31T00:27:08;96392.91;;;7.74;100.00
5872;BME280;2962;51.312;7.378;2023-03-31T00:29:33;96402.22;;;7.76;100.00
5872;BME280;2962;51.312;7.378;2023-03-31T00:32:00;96410.63;;;7.64;100.00
5872;BME280;2962;51.312;7.378;2023-03-31T00:34:25;96397.84;;;7.65;100.00
5872;BME280;2962;51.312;7.378;2023-03-31T00:36:51;96387.75;;;7.58;100.00
5872;BME280;2962;51.312;7.378;2023-03-31T00:39:21;96385.50;;;7.71;100.00
5872;BME280;2962;51.312;7.378;2023-03-31T00:41:47;96380.53;;;7.76;100.00
5872;BME280;2962;51.312;7.378;2023-03-31T00:46:51;96359.66;;;7.80;100.00
5872;BME280;2962;51.312;7.378;2023-03-31T00:49:24;96354.22;;;7.80;100.00
5872;BME280;2962;51.312;7.378;2023-03-31T00:51:54;96352.72;;;7.87;100.00
5872;BME280;2962;51.312;7.378;2023-03-31T00:54:22;96368.97;;;7.87;100.00
5872;BME280;2962;51.312;7.378;2023-03-31T00:56:51;96341.09;;;7.90;100.00
5872;BME280;2962;51.312;7.378;2023-03-31T00:59:20;96357.75;;;7.85;100.00
5872;BME280;2962;51.312;7.378;2023-03-31T01:01:48;96359.25;;;7.78;100.00
5872;BME280;2962;51.312;7.378;2023-03-31T01:04:14;96353.72;;;7.68;100.00
5872;BME280;2962;51.312;7.378;2023-03-31T01:06:53;96360.28;;;7.63;100.00
5872;BME280;2962;51.312;7.378;2023-03-31T01:09:23;96352.88;;;7.60;100.00
5872;BME280;2962;51.312;7.378;2023-03-31T01:11:49;96346.28;;;7.54;100.00
5872;BME280;2962;51.312;7.378;2023-03-31T01:14:14;96350.91;;;7.53;100.00
5872;BME280;2962;51.312;7.378;2023-03-31T01:16:39;96336.94;;;7.48;100.00
5872;BME280;2962;51.312;7.378;2023-03-31T01:19:14;96324.56;;;7.50;100.00
5872;BME280;2962;51.312;7.378;2023-03-31T01:22:05;96326.47;;;7.46;100.00
5872;BME280;2962;51.312;7.378;2023-03-31T01:24:52;96319.09;;;7.43;100.00
5872;BME280;2962;51.312;7.378;2023-03-31T01:27:53;96291.50;;;7.34;100.00
5872;BME280;2962;51.312;7.378;2023-03-31T01:34:06;96287.28;;;7.37;100.00
5872;BME280;2962;51.312;7.378;2023-03-31T01:39:08;96276.81;;;7.35;100.00
5872;BME280;2962;51.312;7.378;2023-03-31T01:41:48;96277.97;;;7.34;100.00
5872;BME280;2962;51.312;7.378;2023-03-31T01:44:38;96271.38;;;7.31;100.00
5872;BME280;2962;51.312;7.378;2023-03-31T01:47:19;96265.53;;;7.29;100.00
5872;BME280;2962;51.312;7.378;2023-03-31T01:50:01;96235.78;;;7.33;100.00
5872;BME280;2962;51.312;7.378;2023-03-31T01:52:37;96246.22;;;7.31;100.00
5872;BME280;2962;51.312;7.378;2023-03-31T01:55:29;96246.97;;;7.28;100.00
5872;BME280;2962;51.312;7.378;2023-03-31T01:58:05;96236.84;;;7.21;100.00
5872;BME280;2962;51.312;7.378;2023-03-31T02:00:38;96233.03;;;7.29;100.00
5872;BME280;2962;51.312;7.378;2023-03-31T02:03:17;96231.47;;;7.25;100.00
5872;BME280;2962;51.312;7.378;2023-03-31T02:05:53;96233.78;;;7.26;100.00
5872;BME280;2962;51.312;7.378;2023-03-31T02:08:26;96226.47;;;7.27;100.00
5872;BME280;2962;51.312;7.378;2023-03-31T02:10:54;96211.34;;;7.26;100.00
5872;BME280;2962;51.312;7.378;2023-03-31T02:13:21;96217.59;;;7.33;100.00
5872;BME280;2962;51.312;7.378;2023-03-31T02:15:52;96202.47;;;7.32;100.00
5872;BME280;2962;51.312;7.378;2023-03-31T02:18:21;96206.78;;;7.37;100.00
5872;BME280;2962;51.312;7.378;2023-03-31T02:20:52;96187.41;;;7.35;100.00
5872;BME280;2962;51.312;7.378;2023-03-31T02:23:23;96201.38;;;7.41;100.00
5872;BME280;2962;51.312;7.378;2023-03-31T02:26:00;96196.38;;;7.43;100.00
5872;BME280;2962;51.312;7.378;2023-03-31T02:28:29;96177.41;;;7.43;100.00
5872;BME280;2962;51.312;7.378;2023-03-31T02:31:10;96183.94;;;7.42;100.00
5872;BME280;2962;51.312;7.378;2023-03-31T02:33:37;96174.31;;;7.44;100.00
5872;BME280;2962;51.312;7.378;2023-03-31T02:36:02;96185.97;;;7.52;100.00
5872;BME280;2962;51.312;7.378;2023-03-31T02:38:32;96167.00;;;7.55;100.00
5872;BME280;2962;51.312;7.378;2023-03-31T02:41:00;96168.91;;;7.48;100.00
5872;BME280;2962;51.312;7.378;2023-03-31T02:43:25;96158.84;;;7.52;100.00
5872;BME280;2962;51.312;7.378;2023-03-31T02:45:50;96158.84;;;7.48;100.00
5872;BME280;2962;51.312;7.378;2023-03-31T02:48:19;96155.78;;;7.57;100.00
5872;BME280;2962;51.312;7.378;2023-03-31T02:50:52;96135.69;;;7.62;100.00
5872;BME280;2962;51.312;7.378;2023-03-31T02:59:13;96108.50;;;7.44;100.00
5872;BME280;2962;51.312;7.378;2023-03-31T03:04:42;96089.13;;;7.45;100.00
5872;BME280;2962;51.312;7.378;2023-03-31T03:07:21;96079.84;;;7.43;100.00
5872;BME280;2962;51.312;7.378;2023-03-31T03:10:08;96074.78;;;7.41;100.00
5872;BME280;2962;51.312;7.378;2023-03-31T03:12:41;96061.25;;;7.41;100.00
5872;BME280;2962;51.312;7.378;2023-03-31T03:15:25;96064.34;;;7.40;100.00
5872;BME280;2962;51.312;7.378;2023-03-31T03:17:55;96050.00;;;7.36;100.00
5872;BME280;2962;51.312;7.378;2023-03-31T03:20:21;96062.03;;;7.38;100.00
5872;BME280;2962;51.312;7.378;2023-03-31T03:22:46;96049.25;;;7.39;100.00
5872;BME280;2962;51.312;7.378;2023-03-31T03:25:13;96038.75;;;7.33;100.00
5872;BME280;2962;51.312;7.378;2023-03-31T03:27:41;96044.22;;;7.41;100.00
5872;BME280;2962;51.312;7.378;2023-03-31T03:30:08;96022.91;;;7.36;100.00
5872;BME280;2962;51.312;7.378;2023-03-31T03:32:34;96015.16;;;7.38;100.00
5872;BME280;2962;51.312;7.378;2023-03-31T03:35:00;95999.28;;;7.32;100.00
5872;BME280;2962;51.312;7.378;2023-03-31T03:37:25;95995.38;;;7.26;100.00
5872;BME280;2962;51.312;7.378;2023-03-31T03:39:51;96002.41;;;7.31;100.00
5872;BME280;2962;51.312;7.378;2023-03-31T03:42:16;95997.72;;;7.24;100.00
5872;BME280;2962;51.312;7.378;2023-03-31T03:44:41;95997.34;;;7.29;100.00
5872;BME280;2962;51.312;7.378;2023-03-31T03:47:07;95972.16;;;7.22;100.00
5872;BME280;2962;51.312;7.378;2023-03-31T03:49:32;95957.47;;;7.16;100.00
5872;BME280;2962;51.312;7.378;2023-03-31T03:51:57;95975.66;;;7.22;100.00
5872;BME280;2962;51.312;7.378;2023-03-31T03:54:22;95960.19;;;7.19;100.00
5872;BME280;2962;51.312;7.378;2023-03-31T03:56:48;95972.94;;;7.22;100.00
5872;BME280;2962;51.312;7.378;2023-03-31T03:59:13;95969.44;;;7.22;100.00
5872;BME280;2962;51.312;7.378;2023-03-31T04:01:38;95970.63;;;7.24;100.00
5872;BME280;2962;51.312;7.378;2023-03-31T04:04:05;95953.59;;;7.20;100.00
5872;BME280;2962;51.312;7.378;2023-03-31T04:06:30;95922.63;;;7.21;100.00
5872;BME280;2962;51.312;7.378;2023-03-31T04:08:55;95931.16;;;7.20;100.00
5872;BME280;2962;51.312;7.378;2023-03-31T04:11:21;95923.41;;;7.25;100.00
5872;BME280;2962;51.312;7.378;2023-03-31T04:13:46;95917.22;;;7.25;100.00
5872;BME280;2962;51.312;7.378;2023-03-31T04:16:12;95931.53;;;7.25;100.00
5872;BME280;2962;51.312;7.378;2023-03-31T04:18:38;95913.34;;;7.22;100.00
5872;BME280;2962;51.312;7.378;2023-03-31T04:21:11;95928.06;;;7.25;100.00
5872;BME280;2962;51.312;7.378;2023-03-31T04:23:40;95921.13;;;7.27;100.00
5872;BME280;2962;51.312;7.378;2023-03-31T04:26:13;95923.06;;;7.30;100.00
5872;BME280;2962;51.312;7.378;2023-03-31T04:28:39;95903.69;;;7.28;100.00
5872;BME280;2962;51.312;7.378;2023-03-31T04:31:10;95916.47;;;7.28;100.00
5872;BME280;2962;51.312;7.378;2023-03-31T04:33:39;95877.00;;;7.23;100.00
5872;BME280;2962;51.312;7.378;2023-03-31T04:36:06;95903.69;;;7.28;100.00
5872;BME280;2962;51.312;7.378;2023-03-31T04:38:45;95886.66;;;7.28;100.00
5872;BME280;2962;51.312;7.378;2023-03-31T04:41:12;95892.84;;;7.28;100.00
5872;BME280;2962;51.312;7.378;2023-03-31T04:43:37;95884.72;;;7.28;100.00
5872;BME280;2962;51.312;7.378;2023-03-31T04:46:02;95865.75;;;7.21;100.00
5872;BME280;2962;51.312;7.378;2023-03-31T04:48:28;95865.75;;;7.21;100.00
5872;BME280;2962;51.312;7.378;2023-03-31T04:50:53;95848.34;;;7.15;100.00
5872;BME280;2962;51.312;7.378;2023-03-31T04:53:18;95861.88;;;7.22;100.00
5872;BME280;2962;51.312;7.378;2023-03-31T04:55:43;95839.06;;;7.20;100.00
5872;BME280;2962;51.312;7.378;2023-03-31T04:58:09;95841.38;;;7.21;100.00
5872;BME280;2962;51.312;7.378;2023-03-31T05:00:35;95838.28;;;7.19;100.00
5872;BME280;2962;51.312;7.378;2023-03-31T05:03:00;95851.84;;;7.19;100.00
5872;BME280;2962;51.312;7.378;2023-03-31T05:05:25;95834.41;;;7.13;100.00
5872;BME280;2962;51.312;7.378;2023-03-31T05:07:51;95828.22;;;7.13;100.00
5872;BME280;2962;51.312;7.378;2023-03-31T05:10:16;95842.53;;;7.13;100.00
5872;BME280;2962;51.312;7.378;2023-03-31T05:12:41;95812.72;;;7.06;100.00
5872;BME280;2962;51.312;7.378;2023-03-31T05:15:07;95808.84;;;7.07;100.00
5872;BME280;2962;51.312;7.378;2023-03-31T05:17:34;95778.69;;;7.05;100.00
5872;BME280;2962;51.312;7.378;2023-03-31T05:19:59;95786.81;;;7.01;100.00
5872;BME280;2962;51.312;7.378;2023-03-31T05:22:25;95780.63;;;6.97;100.00
5872;BME280;2962;51.312;7.378;2023-03-31T05:24:51;95777.91;;;6.97;100.00
5872;BME280;2962;51.312;7.378;2023-03-31T05:27:16;95763.59;;;6.93;100.00
5872;BME280;2962;51.312;7.378;2023-03-31T05:29:42;95750.44;;;6.92;100.00
5872;BME280;2962;51.312;7.378;2023-03-31T05:32:08;95743.09;;;6.85;100.00
5872;BME280;2962;51.312;7.378;2023-03-31T05:34:33;95737.28;;;6.87;100.00
5872;BME280;2962;51.312;7.378;2023-03-31T05:36:58;95734.97;;;6.85;100.00
5872;BME280;2962;51.312;7.378;2023-03-31T05:39:24;95724.50;;;6.83;100.00
5872;BME280;2962;51.312;7.378;2023-03-31T05:41:49;95739.22;;;6.82;100.00
5872;BME280;2962;51.312;7.378;2023-03-31T05:44:14;95710.97;;;6.83;100.00
5872;BME280;2962;51.312;7.378;2023-03-31T05:46:40;95698.22;;;6.84;100.00
5872;BME280;2962;51.312;7.378;2023-03-31T05:49:06;95694.72;;;6.83;100.00
5872;BME280;2962;51.312;7.378;2023-03-31T05:51:32;95690.88;;;6.84;100.00
5872;BME280;2962;51.312;7.378;2023-03-31T05:53:57;95703.63;;;6.88;100.00
5872;BME280;2962;51.312;7.378;2023-03-31T05:56:22;95707.91;;;6.92;100.00
5872;BME280;2962;51.312;7.378;2023-03-31T05:58:48;95689.72;;;6.96;100.00
5872;BME280;2962;51.312;7.378;2023-03-31T06:01:15;95687.03;;;6.96;100.00
5872;BME280;2962;51.312;7.378;2023-03-31T06:03:47;95697.09;;;6.96;100.00
5872;BME280;2962;51.312;7.378;2023-03-31T06:06:13;95679.66;;;6.97;100.00
5872;BME280;2962;51.312;7.378;2023-03-31T06:08:39;95660.31;;;6.95;100.00
5872;BME280;2962;51.312;7.378;2023-03-31T06:11:16;95683.53;;;6.96;100.00
5872;BME280;2962;51.312;7.378;2023-03-31T06:13:44;95671.16;;;6.95;100.00
5872;BME280;2962;51.312;7.378;2023-03-31T06:16:11;95664.59;;;6.96;100.00
5872;BME280;2962;51.312;7.378;2023-03-31T06:18:37;95659.53;;;6.98;100.00
5872;BME280;2962;51.312;7.378;2023-03-31T06:21:03;95658.00;;;6.97;100.00
5872;BME280;2962;51.312;7.378;2023-03-31T06:23:29;95655.66;;;6.95;100.00
5872;BME280;2962;51.312;7.378;2023-03-31T06:25:59;95656.84;;;6.94;100.00
5872;BME280;2962;51.312;7.378;2023-03-31T06:28:26;95652.59;;;6.86;100.00
5872;BME280;2962;51.312;7.378;2023-03-31T06:31:02;95663.44;;;6.90;100.00
5872;BME280;2962;51.312;7.378;2023-03-31T06:33:27;95641.00;;;6.89;100.00
5872;BME280;2962;51.312;7.378;2023-03-31T06:35:55;95655.25;;;7.22;100.00
5872;BME280;2962;51.312;7.378;2023-03-31T06:38:20;95654.50;;;7.07;100.00
5872;BME280;2962;51.312;7.378;2023-03-31T06:40:45;95660.31;;;7.13;100.00
5872;BME280;2962;51.312;7.378;2023-03-31T06:43:11;95653.38;;;7.04;100.00
5872;BME280;2962;51.312;7.378;2023-03-31T06:45:36;95640.19;;;7.03;100.00
5872;BME280;2962;51.312;7.378;2023-03-31T06:48:01;95633.63;;;7.11;100.00
5872;BME280;2962;51.312;7.378;2023-03-31T06:50:27;95640.22;;;6.96;100.00
5872;BME280;2962;51.312;7.378;2023-03-31T06:52:52;95633.66;;;6.86;100.00
5872;BME280;2962;51.312;7.378;2023-03-31T06:55:19;95612.75;;;6.79;100.00
5872;BME280;2962;51.312;7.378;2023-03-31T06:57:44;95620.13;;;6.75;100.00
5872;BME280;2962;51.312;7.378;2023-03-31T07:00:10;95620.88;;;6.79;100.00
5872;BME280;2962;51.312;7.378;2023-03-31T07:02:35;95634.81;;;6.81;100.00
5872;BME280;2962;51.312;7.378;2023-03-31T07:05:01;95627.06;;;6.76;100.00
5872;BME280;2962;51.312;7.378;2023-03-31T07:07:26;95629.00;;;6.79;100.00
5872;BME280;2962;51.312;7.378;2023-03-31T07:09:55;95629.41;;;6.78;100.00
5872;BME280;2962;51.312;7.378;2023-03-31T07:12:20;95630.94;;;6.75;100.00
5872;BME280;2962;51.312;7.378;2023-03-31T07:14:45;95633.28;;;6.73;100.00
5872;BME280;2962;51.312;7.378;2023-03-31T07:17:10;95629.41;;;6.74;100.00
5872;BME280;2962;51.312;7.378;2023-03-31T07:19:36;95628.63;;;6.67;100.00
5872;BME280;2962;51.312;7.378;2023-03-31T07:22:02;95630.16;;;6.71;100.00
5872;BME280;2962;51.312;7.378;2023-03-31T07:24:27;95630.94;;;6.61;100.00
5872;BME280;2962;51.312;7.378;2023-03-31T07:26:52;95631.72;;;6.65;100.00
5872;BME280;2962;51.312;7.378;2023-03-31T07:29:18;95627.84;;;6.63;100.00
5872;BME280;2962;51.312;7.378;2023-03-31T07:31:46;95620.50;;;6.63;100.00
5872;BME280;2962;51.312;7.378;2023-03-31T07:34:12;95623.97;;;6.60;100.00
5872;BME280;2962;51.312;7.378;2023-03-31T07:36:37;95597.31;;;6.62;100.00
5872;BME280;2962;51.312;7.378;2023-03-31T07:39:04;95617.81;;;6.59;100.00
5872;BME280;2962;51.312;7.378;2023-03-31T07:41:29;95615.88;;;6.60;100.00
5872;BME280;2962;51.312;7.378;2023-03-31T07:43:55;95612.38;;;6.56;100.00
5872;BME280;2962;51.312;7.378;2023-03-31T07:46:22;95589.97;;;6.45;100.00
5872;BME280;2962;51.312;7.378;2023-03-31T07:48:48;95612.78;;;6.62;100.00
5872;BME280;2962;51.312;7.378;2023-03-31T07:51:16;95586.50;;;6.62;100.00
5872;BME280;2962;51.312;7.378;2023-03-31T07:53:41;95606.97;;;6.67;100.00
5872;BME280;2962;51.312;7.378;2023-03-31T07:56:07;95592.28;;;6.71;100.00
5872;BME280;2962;51.312;7.378;2023-03-31T07:58:32;95612.00;;;6.75;100.00
5872;BME280;2962;51.312;7.378;2023-03-31T08:00:58;95593.03;;;6.79;100.00
5872;BME280;2962;51.312;7.378;2023-03-31T08:03:23;95570.63;;;6.82;100.00
5872;BME280;2962;51.312;7.378;2023-03-31T08:05:52;95579.91;;;6.88;100.00
5872;BME280;2962;51.312;7.378;2023-03-31T08:08:17;95606.16;;;6.98;100.00
5872;BME280;2962;51.312;7.378;2023-03-31T08:10:43;95581.78;;;7.02;100.00
5872;BME280;2962;51.312;7.378;2023-03-31T08:13:11;95577.13;;;7.09;100.00
5872;BME280;2962;51.312;7.378;2023-03-31T08:15:37;95583.72;;;7.16;100.00
5872;BME280;2962;51.312;7.378;2023-03-31T08:18:03;95593.72;;;7.22;100.00
5872;BME280;2962;51.312;7.378;2023-03-31T08:20:29;95601.06;;;7.29;100.00
5872;BME280;2962;51.312;7.378;2023-03-31T08:22:54;95586.72;;;7.43;100.00
5872;BME280;2962;51.312;7.378;2023-03-31T08:25:22;95602.56;;;7.51;100.00
5872;BME280;2962;51.312;7.378;2023-03-31T08:27:48;95578.88;;;7.66;100.00
5872;BME280;2962;51.312;7.378;2023-03-31T08:30:16;95576.47;;;7.82;100.00
5872;BME280;2962;51.312;7.378;2023-03-31T08:32:42;95581.47;;;7.88;100.00
5872;BME280;2962;51.312;7.378;2023-03-31T08:35:10;95558.94;;;7.98;100.00
5872;BME280;2962;51.312;7.378;2023-03-31T08:37:36;95563.94;;;8.03;100.00
5872;BME280;2962;51.312;7.378;2023-03-31T08:40:03;95589.06;;;8.11;100.00
5872;BME280;2962;51.312;7.378;2023-03-31T08:47:33;95542.06;;;8.28;100.00
5872;BME280;2962;51.312;7.378;2023-03-31T08:50:22;95564.59;;;8.21;100.00
5872;BME280;2962;51.312;7.378;2023-03-31T08:52:55;95557.41;;;8.52;100.00
5872;BME280;2962;51.312;7.378;2023-03-31T08:55:26;95554.16;;;8.68;100.00
5872;BME280;2962;51.312;7.378;2023-03-31T09:00:18;95561.72;;;9.29;100.00
5872;BME280;2962;51.312;7.378;2023-03-31T09:05:42;95556.34;;;9.56;100.00
5872;BME280;2962;51.312;7.378;2023-03-31T09:08:28;95559.16;;;9.15;100.00
5872;BME280;2962;51.312;7.378;2023-03-31T09:11:05;95545.31;;;8.61;100.00
5872;BME280;2962;51.312;7.378;2023-03-31T09:13:46;95559.25;;;8.66;100.00
5872;BME280;2962;51.312;7.378;2023-03-31T09:16:30;95570.19;;;8.55;100.00
5872;BME280;2962;51.312;7.378;2023-03-31T09:18:59;95571.47;;;8.37;100.00
5872;BME280;2962;51.312;7.378;2023-03-31T09:21:34;95557.25;;;8.18;100.00
5872;BME280;2962;51.312;7.378;2023-03-31T09:24:17;95565.47;;;8.07;100.00
5872;BME280;2962;51.312;7.378;2023-03-31T09:26:53;95563.53;;;8.08;100.00
5872;BME280;2962;51.312;7.378;2023-03-31T09:29:27;95562.41;;;8.02;100.00
5872;BME280;2962;51.312;7.378;2023-03-31T09:32:01;95553.72;;;8.25;100.00
5872;BME280;2962;51.312;7.378;2023-03-31T09:34:33;95543.03;;;8.55;100.00
5872;BME280;2962;51.312;7.378;2023-03-31T09:36:59;95559.31;;;9.00;100.00
5872;BME280;2962;51.312;7.378;2023-03-31T09:39:24;95554.31;;;9.29;100.00
5872;BME280;2962;51.312;7.378;2023-03-31T09:41:51;95552.63;;;9.73;100.00
5872;BME280;2962;51.312;7.378;2023-03-31T09:44:28;95548.06;;;9.94;100.00
5872;BME280;2962;51.312;7.378;2023-03-31T09:46:55;95545.25;;;10.01;100.00
5872;BME280;2962;51.312;7.378;2023-03-31T09:49:26;95526.69;;;9.96;100.00
5872;BME280;2962;51.312;7.378;2023-03-31T09:52:09;95512.72;;;9.94;100.00
5872;BME280;2962;51.312;7.378;2023-03-31T09:54:40;95512.00;;;10.17;100.00
5872;BME280;2962;51.312;7.378;2023-03-31T09:57:14;95508.13;;;10.14;100.00
5872;BME280;2962;51.312;7.378;2023-03-31T09:59:40;95511.47;;;10.25;100.00
5872;BME280;2962;51.312;7.378;2023-03-31T10:04:45;95502.28;;;10.43;100.00
5872;BME280;2962;51.312;7.378;2023-03-31T10:07:12;95493.97;;;10.73;100.00
5872;BME280;2962;51.312;7.378;2023-03-31T10:09:38;95487.91;;;11.06;100.00
5872;BME280;2962;51.312;7.378;2023-03-31T10:12:07;95486.88;;;10.99;100.00
5872;BME280;2962;51.312;7.378;2023-03-31T10:14:40;95474.50;;;10.95;100.00
5872;BME280;2962;51.312;7.378;2023-03-31T10:17:06;95482.41;;;11.09;100.00
5872;BME280;2962;51.312;7.378;2023-03-31T10:19:35;95468.50;;;11.23;100.00
5872;BME280;2962;51.312;7.378;2023-03-31T10:22:13;95446.69;;;11.23;100.00
5872;BME280;2962;51.312;7.378;2023-03-31T10:24:42;95441.44;;;11.13;100.00
5872;BME280;2962;51.312;7.378;2023-03-31T10:27:20;95448.72;;;10.99;100.00
5872;BME280;2962;51.312;7.378;2023-03-31T10:29:46;95454.72;;;10.91;100.00
5872;BME280;2962;51.312;7.378;2023-03-31T10:32:27;95444.81;;;10.81;100.00
5872;BME280;2962;51.312;7.378;2023-03-31T10:34:55;95449.69;;;10.69;100.00
5872;BME280;2962;51.312;7.378;2023-03-31T10:37:23;95444.44;;;10.59;100.00
5872;BME280;2962;51.312;7.378;2023-03-31T10:39:57;95457.50;;;10.67;100.00
5872;BME280;2962;51.312;7.378;2023-03-31T10:42:26;95482.63;;;10.55;100.00
5872;BME280;2962;51.312;7.378;2023-03-31T10:45:17;95461.03;;;9.40;100.00
5872;BME280;2962;51.312;7.378;2023-03-31T10:47:49;95459.44;;;8.36;100.00
5872;BME280;2962;51.312;7.378;2023-03-31T10:50:16;95458.66;;;7.91;100.00
5872;BME280;2962;51.312;7.378;2023-03-31T10:52:44;95474.16;;;7.90;100.00
5872;BME280;2962;51.312;7.378;2023-03-31T10:55:22;95484.44;;;8.13;100.00
5872;BME280;2962;51.312;7.378;2023-03-31T11:00:26;95470.91;;;8.96;100.00
5872;BME280;2962;51.312;7.378;2023-03-31T11:03:34;95477.81;;;9.89;100.00
5872;BME280;2962;51.312;7.378;2023-03-31T11:08:37;95438.44;;;11.63;100.00
5872;BME280;2962;51.312;7.378;2023-03-31T11:11:38;95410.44;;;12.57;100.00
5872;BME280;2962;51.312;7.378;2023-03-31T11:20:07;95372.72;;;13.23;100.00
5872;BME280;2962;51.312;7.378;2023-03-31T11:22:55;95380.25;;;12.48;100.00
5872;BME280;2962;51.312;7.378;2023-03-31T11:25:39;95388.50;;;11.99;100.00
5872;BME280;2962;51.312;7.378;2023-03-31T11:31:00;95454.13;;;11.03;100.00
5872;BME280;2962;51.312;7.378;2023-03-31T11:33:50;95489.84;;;8.65;100.00
5872;BME280;2962;51.312;7.378;2023-03-31T11:36:33;95513.91;;;7.52;100.00
5872;BME280;2962;51.312;7.378;2023-03-31T11:39:34;95517.13;;;7.18;100.00
5872;BME280;2962;51.312;7.378;2023-03-31T11:42:08;95519.09;;;7.14;100.00
5872;BME280;2962;51.312;7.378;2023-03-31T11:44:41;95521.78;;;7.14;100.00
5872;BME280;2962;51.312;7.378;2023-03-31T11:47:21;95515.56;;;7.24;100.00
5872;BME280;2962;51.312;7.378;2023-03-31T11:49:56;95529.88;;;7.25;100.00
5872;BME280;2962;51.312;7.378;2023-03-31T11:52:27;95538.78;;;7.22;100.00
5872;BME280;2962;51.312;7.378;2023-03-31T11:55:18;95524.06;;;7.30;100.00
5872;BME280;2962;51.312;7.378;2023-03-31T12:00:17;95512.44;;;7.29;100.00
5872;BME280;2962;51.312;7.378;2023-03-31T12:05:39;95500.41;;;7.38;100.00
5872;BME280;2962;51.312;7.378;2023-03-31T12:10:49;95477.47;;;7.60;100.00
5872;BME280;2962;51.312;7.378;2023-03-31T12:16:03;95480.28;;;8.01;100.00
5872;BME280;2962;51.312;7.378;2023-03-31T12:18:41;95477.88;;;8.11;100.00
5872;BME280;2962;51.312;7.378;2023-03-31T12:21:09;95472.41;;;8.18;100.00
5872;BME280;2962;51.312;7.378;2023-03-31T12:23:42;95463.81;;;8.26;100.00
5872;BME280;2962;51.312;7.378;2023-03-31T12:28:50;95443.59;;;8.35;100.00
5872;BME280;2962;51.312;7.378;2023-03-31T12:31:20;95441.56;;;8.46;100.00
5872;BME280;2962;51.312;7.378;2023-03-31T12:33:58;95434.47;;;8.55;100.00
5872;BME280;2962;51.312;7.378;2023-03-31T12:39:21;95445.56;;;8.68;100.00
5872;BME280;2962;51.312;7.378;2023-03-31T12:47:50;95444.19;;;8.53;100.00
5872;BME280;2962;51.312;7.378;2023-03-31T12:56:07;95431.00;;;8.55;100.00
5872;BME280;2962;51.312;7.378;2023-03-31T12:58:38;95448.00;;;8.59;100.00
5872;BME280;2962;51.312;7.378;2023-03-31T13:01:14;95440.34;;;8.50;100.00
5872;BME280;2962;51.312;7.378;2023-03-31T13:03:53;95443.38;;;8.56;100.00
5872;BME280;2962;51.312;7.378;2023-03-31T13:08:57;95420.25;;;8.78;100.00
5872;BME280;2962;51.312;7.378;2023-03-31T13:11:36;95433.50;;;9.07;100.00
5872;BME280;2962;51.312;7.378;2023-03-31T13:14:03;95436.66;;;9.33;100.00
5872;BME280;2962;51.312;7.378;2023-03-31T13:16:33;95438.78;;;9.75;100.00
5872;BME280;2962;51.312;7.378;2023-03-31T13:18:59;95434.03;;;9.79;100.00
5872;BME280;2962;51.312;7.378;2023-03-31T13:21:25;95417.88;;;9.72;100.00
5872;BME280;2962;51.312;7.378;2023-03-31T13:23:52;95421.13;;;9.60;100.00
5872;BME280;2962;51.312;7.378;2023-03-31T13:26:45;95425.31;;;9.38;100.00
5872;BME280;2962;51.312;7.378;2023-03-31T13:34:32;95411.84;;;9.85;100.00
5872;BME280;2962;51.312;7.378;2023-03-31T13:39:38;95412.06;;;9.94;100.00
5872;BME280;2962;51.312;7.378;2023-03-31T13:45:18;95398.47;;;9.94;100.00
5872;BME280;2962;51.312;7.378;2023-03-31T13:53:24;95376.88;;;11.79;100.00
5872;BME280;2962;51.312;7.378;2023-03-31T14:06:47;95382.88;;;11.21;100.00
5872;BME280;2962;51.312;7.378;2023-03-31T14:09:39;95380.34;;;10.74;100.00
5872;BME280;2962;51.312;7.378;2023-03-31T14:12:37;95386.88;;;10.57;100.00
5872;BME280;2962;51.312;7.378;2023-03-31T14:15:04;95379.28;;;10.48;100.00
5872;BME280;2962;51.312;7.378;2023-03-31T14:17:36;95383.75;;;10.38;100.00
5872;BME280;2962;51.312;7.378;2023-03-31T14:20:17;95386.25;;;10.49;100.00
5872;BME280;2962;51.312;7.378;2023-03-31T14:28:53;95364.81;;;10.71;100.00
5872;BME280;2962;51.312;7.378;2023-03-31T14:31:35;95358.75;;;10.83;100.00
5872;BME280;2962;51.312;7.378;2023-03-31T14:37:03;95355.69;;;11.17;100.00
5872;BME280;2962;51.312;7.378;2023-03-31T14:39:31;95344.38;;;11.19;100.00
5872;BME280;2962;51.312;7.378;2023-03-31T14:42:18;95341.53;;;11.06;100.00
5872;BME280;2962;51.312;7.378;2023-03-31T14:44:46;95321.81;;;10.62;100.00
5872;BME280;2962;51.312;7.378;2023-03-31T14:47:23;95347.72;;;10.70;100.00
5872;BME280;2962;51.312;7.378;2023-03-31T14:50:07;95336.75;;;10.74;100.00
5872;BME280;2962;51.312;7.378;2023-03-31T14:52:36;95329.03;;;10.72;100.00
5872;BME280;2962;51.312;7.378;2023-03-31T14:55:01;95340.66;;;10.53;100.00
5872;BME280;2962;51.312;7.378;2023-03-31T14:57:32;95331.97;;;10.42;100.00
5872;BME280;2962;51.312;7.378;2023-03-31T15:00:00;95317.72;;;10.54;100.00
5872;BME280;2962;51.312;7.378;2023-03-31T15:02:32;95314.13;;;10.37;100.00
5872;BME280;2962;51.312;7.378;2023-03-31T15:05:01;95338.25;;;10.39;100.00
5872;BME280;2962;51.312;7.378;2023-03-31T15:07:27;95329.00;;;10.33;100.00
5872;BME280;2962;51.312;7.378;2023-03-31T15:09:52;95336.84;;;10.31;100.00
5872;BME280;2962;51.312;7.378;2023-03-31T15:12:19;95335.91;;;9.94;100.00
5872;BME280;2962;51.312;7.378;2023-03-31T15:14:48;95320.78;;;9.69;100.00
5872;BME280;2962;51.312;7.378;2023-03-31T15:17:20;95359.50;;;9.53;100.00
5872;BME280;2962;51.312;7.378;2023-03-31T15:19:51;95330.38;;;9.27;100.00
5872;BME280;2962;51.312;7.378;2023-03-31T15:22:17;95318.97;;;9.12;100.00
5872;BME280;2962;51.312;7.378;2023-03-31T15:24:43;95327.88;;;9.13;100.00
5872;BME280;2962;51.312;7.378;2023-03-31T15:29:44;95336.88;;;9.06;100.00